createdAt,value
2022-08-28T00:01:45.693Z,3.40
2022-08-28T00:04:15.546Z,3.72
2022-08-28T00:06:45.394Z,4.05
2022-08-28T00:09:16.789Z,4.13
2022-08-28T00:11:47.468Z,4.18
2022-08-28T00:14:19.411Z,4.25
2022-08-28T00:16:49.497Z,4.55
2022-08-28T00:19:20.486Z,4.95
2022-08-28T00:21:50.577Z,4.75
2022-08-28T00:24:22.212Z,4.03
2022-08-28T00:27:09.354Z,4.33
2022-08-28T00:29:39.473Z,4.88
2022-08-28T00:32:10.017Z,4.07
2022-08-28T00:34:40.409Z,4.10
2022-08-28T00:37:10.722Z,4.13
2022-08-28T00:39:42.153Z,5.10
2022-08-28T00:42:12.234Z,4.32
2022-08-28T00:44:42.477Z,4.55
2022-08-28T00:47:12.309Z,3.88
2022-08-28T00:52:29.477Z,3.97
2022-08-28T00:55:04.345Z,4.32
2022-08-28T00:57:38.269Z,3.63
2022-08-28T01:00:13.349Z,4.18
2022-08-28T01:02:45.612Z,4.22
2022-08-28T01:07:49.590Z,4.30
2022-08-28T01:12:55.268Z,4.32
2022-08-28T01:15:30.000Z,4.18
2022-08-28T01:18:07.882Z,4.28
2022-08-28T01:20:44.218Z,5.40
2022-08-28T01:23:43.026Z,5.57
2022-08-28T01:26:13.152Z,5.15
2022-08-28T01:28:43.673Z,5.32
2022-08-28T01:31:15.186Z,4.70
2022-08-28T01:33:46.613Z,4.37
2022-08-28T01:36:18.494Z,4.55
2022-08-28T01:38:54.979Z,4.18
2022-08-28T01:41:24.996Z,4.85
2022-08-28T01:43:55.393Z,3.95
2022-08-28T01:46:25.478Z,5.00
2022-08-28T01:48:55.556Z,4.60
2022-08-28T01:51:25.575Z,4.72
2022-08-28T01:53:57.551Z,4.00
2022-08-28T01:56:27.753Z,4.43
2022-08-28T01:58:57.637Z,4.22
2022-08-28T02:01:27.577Z,4.90
2022-08-28T02:03:57.748Z,4.40
2022-08-28T02:06:27.628Z,4.93
2022-08-28T02:08:59.872Z,5.28
2022-08-28T02:11:30.999Z,4.63
2022-08-28T02:14:02.985Z,4.90
2022-08-28T02:16:32.892Z,4.63
2022-08-28T02:19:03.872Z,4.63
2022-08-28T02:21:33.818Z,4.32
2022-08-28T02:24:06.069Z,4.30
2022-08-28T02:26:36.359Z,4.70
2022-08-28T02:29:07.455Z,4.45
2022-08-28T02:31:37.406Z,4.47
2022-08-28T02:34:07.968Z,4.10
2022-08-28T02:36:41.354Z,4.63
2022-08-28T02:39:13.129Z,3.97
2022-08-28T02:41:43.655Z,3.80
2022-08-28T02:44:13.734Z,4.38
2022-08-28T02:46:43.696Z,4.70
2022-08-28T02:49:13.649Z,3.75
2022-08-28T02:51:43.779Z,4.22
2022-08-28T02:54:15.328Z,4.32
2022-08-28T02:56:48.436Z,4.07
2022-08-28T02:59:18.518Z,4.78
2022-08-28T03:01:48.813Z,3.85
2022-08-28T03:04:18.832Z,4.30
2022-08-28T03:06:50.186Z,4.25
2022-08-28T03:09:21.610Z,3.75
2022-08-28T03:11:54.293Z,4.00
2022-08-28T03:14:24.713Z,4.32
2022-08-28T03:16:54.861Z,3.95
2022-08-28T03:19:24.777Z,4.20
2022-08-28T03:21:56.149Z,7.15
2022-08-28T03:24:27.511Z,4.53
2022-08-28T03:26:57.474Z,5.22
2022-08-28T03:29:27.648Z,4.45
2022-08-28T03:31:57.702Z,4.35
2022-08-28T03:34:27.632Z,4.88
2022-08-28T03:36:57.394Z,3.70
2022-08-28T03:39:29.453Z,4.50
2022-08-28T03:41:59.393Z,4.97
2022-08-28T03:44:29.355Z,4.50
2022-08-28T03:46:59.171Z,4.55
2022-08-28T03:49:29.655Z,4.45
2022-08-28T03:53:31.055Z,4.63
2022-08-28T03:56:01.174Z,5.53
2022-08-28T03:58:31.258Z,4.60
2022-08-28T04:01:01.239Z,6.15
2022-08-28T04:03:31.119Z,5.15
2022-08-28T04:06:01.218Z,4.68
2022-08-28T04:08:32.854Z,3.88
2022-08-28T04:11:02.671Z,3.93
2022-08-28T04:13:33.253Z,5.18
2022-08-28T04:16:06.377Z,4.95
2022-08-28T04:18:37.149Z,4.28
2022-08-28T04:21:11.774Z,5.03
2022-08-28T04:23:45.515Z,5.50
2022-08-28T04:26:18.869Z,4.82
2022-08-28T04:28:49.715Z,5.18
2022-08-28T04:31:31.880Z,5.55
2022-08-28T04:34:05.231Z,4.93
2022-08-28T04:36:35.751Z,5.57
2022-08-28T04:39:11.373Z,5.35
2022-08-28T04:41:41.656Z,4.63
2022-08-28T04:44:11.516Z,5.10
2022-08-28T04:46:41.329Z,4.80
2022-08-28T04:49:12.459Z,5.53
2022-08-28T04:51:42.828Z,4.97
2022-08-28T04:54:14.257Z,5.75
2022-08-28T04:56:44.211Z,5.10
2022-08-28T04:59:14.798Z,5.75
2022-08-28T05:01:45.139Z,5.45
2022-08-28T05:04:15.654Z,5.75
2022-08-28T05:06:46.633Z,5.05
2022-08-28T05:09:20.694Z,5.40
2022-08-28T05:11:53.501Z,4.30
2022-08-28T05:14:23.462Z,4.50
2022-08-28T05:16:57.919Z,4.75
2022-08-28T05:19:29.793Z,4.68
2022-08-28T05:21:59.594Z,4.97
2022-08-28T05:24:31.009Z,6.10
2022-08-28T05:27:00.995Z,6.57
2022-08-28T05:29:31.058Z,5.97
2022-08-28T05:32:01.010Z,6.13
2022-08-28T05:34:31.689Z,7.03
2022-08-28T05:37:02.470Z,6.53
2022-08-28T05:39:33.883Z,6.53
2022-08-28T05:42:03.933Z,5.90
2022-08-28T05:44:33.804Z,5.97
2022-08-28T05:47:03.974Z,5.88
2022-08-28T05:49:33.835Z,7.45
2022-08-28T05:52:03.719Z,6.93
2022-08-28T05:54:35.055Z,6.93
2022-08-28T05:57:06.958Z,6.28
2022-08-28T05:59:36.796Z,6.63
2022-08-28T06:02:09.120Z,6.30
2022-08-28T06:04:40.814Z,6.53
2022-08-28T06:07:12.430Z,6.05
2022-08-28T06:09:44.919Z,9.02
2022-08-28T06:12:15.947Z,5.65
2022-08-28T06:14:46.249Z,5.43
2022-08-28T06:17:16.333Z,5.65
2022-08-28T06:19:53.510Z,5.38
2022-08-28T06:22:23.629Z,5.85
2022-08-28T06:24:55.149Z,5.20
2022-08-28T06:27:25.012Z,7.32
2022-08-28T06:29:55.021Z,8.38
2022-08-28T06:32:24.910Z,6.82
2022-08-28T06:34:54.949Z,3.95
2022-08-28T06:37:24.874Z,4.53
2022-08-28T06:39:56.233Z,3.97
2022-08-28T06:42:26.220Z,3.97
2022-08-28T06:44:56.010Z,3.75
2022-08-28T06:47:25.961Z,4.00
2022-08-28T06:53:30.843Z,3.78
2022-08-28T06:56:06.838Z,5.05
2022-08-28T06:58:38.253Z,3.67
2022-08-28T07:01:10.925Z,3.35
2022-08-28T07:03:45.708Z,3.65
2022-08-28T07:06:17.001Z,4.18
2022-08-28T07:08:48.477Z,4.17
2022-08-28T07:11:26.141Z,3.95
2022-08-28T07:13:57.673Z,4.40
2022-08-28T07:16:31.319Z,3.73
2022-08-28T07:19:04.175Z,3.78
2022-08-28T07:21:38.233Z,3.88
2022-08-28T07:24:12.374Z,3.58
2022-08-28T07:26:43.901Z,4.13
2022-08-28T07:29:14.824Z,4.32
2022-08-28T07:31:49.473Z,3.97
2022-08-28T07:34:22.514Z,4.03
2022-08-28T07:37:04.027Z,4.07
2022-08-28T07:39:36.434Z,4.18
2022-08-28T07:42:06.576Z,3.80
2022-08-28T07:44:50.755Z,3.83
2022-08-28T07:47:21.555Z,3.63
2022-08-28T07:49:53.849Z,4.13
2022-08-28T07:52:23.636Z,4.38
2022-08-28T07:54:55.266Z,3.58
2022-08-28T07:57:25.474Z,3.67
2022-08-28T07:59:55.633Z,3.75
2022-08-28T08:02:25.614Z,4.75
2022-08-28T08:04:55.645Z,3.63
2022-08-28T08:07:25.677Z,3.50
2022-08-28T08:09:57.752Z,3.50
2022-08-28T08:12:29.282Z,3.55
2022-08-28T08:14:59.572Z,4.47
2022-08-28T08:17:29.486Z,4.43
2022-08-28T08:19:59.495Z,4.35
2022-08-28T08:22:29.578Z,3.50
2022-08-28T08:25:00.972Z,3.97
2022-08-28T08:27:30.940Z,4.10
2022-08-28T08:30:01.341Z,3.78
2022-08-28T08:32:31.334Z,4.38
2022-08-28T08:35:01.336Z,3.58
2022-08-28T08:37:31.371Z,3.53
2022-08-28T08:40:07.610Z,3.80
2022-08-28T08:42:40.493Z,4.90
2022-08-28T08:45:17.217Z,4.65
2022-08-28T08:47:52.482Z,4.35
2022-08-28T08:50:27.062Z,4.68
2022-08-28T08:53:20.881Z,3.42
2022-08-28T08:55:54.256Z,3.28
2022-08-28T08:58:31.687Z,3.67
2022-08-28T09:01:09.952Z,3.65
2022-08-28T09:03:55.434Z,3.65
2022-08-28T09:06:34.838Z,4.63
2022-08-28T09:09:09.452Z,3.88
2022-08-28T09:11:57.232Z,3.40
2022-08-28T09:14:39.214Z,3.63
2022-08-28T09:17:10.236Z,4.25
2022-08-28T09:19:42.416Z,3.27
2022-08-28T09:22:12.419Z,3.38
2022-08-28T09:24:43.988Z,3.63
2022-08-28T09:27:27.812Z,3.85
2022-08-28T09:30:07.566Z,3.28
2022-08-28T09:32:43.919Z,3.00
2022-08-28T09:35:19.334Z,3.30
2022-08-28T09:37:49.357Z,3.38
2022-08-28T09:40:27.614Z,3.33
2022-08-28T09:43:27.993Z,3.00
2022-08-28T09:46:03.377Z,4.15
2022-08-28T09:48:39.369Z,3.20
2022-08-28T09:53:28.800Z,3.83
2022-08-28T09:56:11.444Z,3.15
2022-08-28T09:58:48.036Z,4.00
2022-08-28T10:01:45.140Z,3.15
2022-08-28T10:04:33.054Z,2.90
2022-08-28T10:07:08.352Z,2.50
2022-08-28T10:09:50.255Z,3.22
2022-08-28T10:12:38.549Z,3.58
2022-08-28T10:15:18.665Z,3.35
2022-08-28T10:18:06.488Z,3.45
2022-08-28T10:20:50.741Z,3.47
2022-08-28T10:23:33.375Z,2.63
2022-08-28T10:26:21.696Z,3.50
2022-08-28T10:29:05.509Z,3.17
2022-08-28T10:31:47.641Z,3.00
2022-08-28T10:34:37.561Z,3.33
2022-08-28T10:37:16.409Z,3.53
2022-08-28T10:39:56.121Z,3.15
2022-08-28T10:42:36.181Z,3.50
2022-08-28T10:45:12.399Z,3.10
2022-08-28T10:47:46.670Z,2.90
2022-08-28T10:50:24.227Z,3.85
2022-08-28T10:53:02.356Z,3.78
2022-08-28T10:55:39.438Z,3.45
2022-08-28T10:58:23.772Z,3.75
2022-08-28T11:00:58.895Z,2.90
2022-08-28T11:03:34.772Z,2.90
2022-08-28T11:06:11.864Z,3.03
2022-08-28T11:08:42.516Z,2.67
2022-08-28T11:11:17.514Z,2.95
2022-08-28T11:13:59.957Z,2.60
2022-08-28T11:16:43.308Z,2.92
2022-08-28T11:20:03.350Z,2.65
2022-08-28T11:22:39.850Z,2.83
2022-08-28T11:25:26.298Z,3.17
2022-08-28T11:28:19.234Z,2.63
2022-08-28T11:31:19.020Z,2.83
2022-08-28T11:33:59.874Z,3.22
2022-08-28T11:37:04.317Z,3.92
2022-08-28T11:39:34.347Z,3.20
2022-08-28T11:42:37.794Z,3.40
2022-08-28T11:45:08.689Z,3.15
2022-08-28T11:47:53.352Z,3.37
2022-08-28T11:50:31.170Z,2.78
2022-08-28T11:53:49.458Z,2.42
2022-08-28T11:56:42.716Z,3.00
2022-08-28T11:59:55.914Z,3.22
2022-08-28T12:02:55.293Z,3.45
2022-08-28T12:05:49.073Z,2.92
2022-08-28T12:09:15.468Z,2.88
2022-08-28T12:12:01.534Z,3.05
2022-08-28T12:15:07.939Z,2.80
2022-08-28T12:17:59.093Z,3.17
2022-08-28T12:20:59.452Z,3.27
2022-08-28T12:23:42.927Z,3.10
2022-08-28T12:26:25.294Z,3.20
2022-08-28T12:28:59.411Z,3.08
2022-08-28T12:32:15.220Z,2.80
2022-08-28T12:34:54.556Z,3.10
2022-08-28T12:37:51.035Z,3.08
2022-08-28T12:40:26.769Z,2.70
2022-08-28T12:43:00.558Z,3.15
2022-08-28T12:45:41.426Z,3.20
2022-08-28T12:48:20.284Z,3.13
2022-08-28T12:53:27.134Z,3.00
2022-08-28T12:55:58.750Z,3.00
2022-08-28T12:58:34.991Z,2.47
2022-08-28T13:01:10.159Z,3.50
2022-08-28T13:03:47.869Z,3.22
2022-08-28T13:06:28.899Z,2.50
2022-08-28T13:09:05.597Z,2.58
2022-08-28T13:11:38.878Z,2.88
2022-08-28T13:14:09.674Z,2.88
2022-08-28T13:16:43.177Z,2.60
2022-08-28T13:19:38.538Z,2.97
2022-08-28T13:22:18.411Z,2.70
2022-08-28T13:24:50.700Z,2.90
2022-08-28T13:27:27.130Z,2.67
2022-08-28T13:30:17.040Z,3.20
2022-08-28T13:33:00.648Z,3.40
2022-08-28T13:35:41.570Z,2.53
2022-08-28T13:38:14.556Z,3.57
2022-08-28T13:40:59.756Z,2.83
2022-08-28T13:43:45.722Z,3.03
2022-08-28T13:46:15.769Z,2.95
2022-08-28T13:48:45.611Z,2.60
2022-08-28T13:51:20.933Z,2.42
2022-08-28T13:53:51.299Z,3.00
2022-08-28T13:56:27.581Z,2.90
2022-08-28T13:58:57.803Z,2.90
2022-08-28T14:01:48.967Z,2.92
2022-08-28T14:04:17.898Z,3.40
2022-08-28T14:06:47.747Z,3.10
2022-08-28T14:09:17.962Z,2.90
2022-08-28T14:11:51.211Z,2.47
2022-08-28T14:14:21.213Z,3.10
2022-08-28T14:16:53.677Z,3.25
2022-08-28T14:19:24.619Z,2.63
2022-08-28T14:21:54.571Z,3.00
2022-08-28T14:24:24.723Z,3.20
2022-08-28T14:26:56.714Z,3.20
2022-08-28T14:31:56.213Z,3.45
2022-08-28T14:34:26.532Z,2.80
2022-08-28T14:36:56.619Z,3.63
2022-08-28T14:39:28.370Z,3.05
2022-08-28T14:41:59.771Z,3.55
2022-08-28T14:44:29.669Z,3.17
2022-08-28T14:46:59.452Z,3.42
2022-08-28T14:49:30.118Z,3.22
2022-08-28T14:52:00.034Z,3.35
2022-08-28T14:54:30.134Z,3.67
2022-08-28T14:57:01.513Z,3.75
2022-08-28T14:59:34.319Z,3.33
2022-08-28T15:02:04.469Z,3.40
2022-08-28T15:04:38.281Z,3.10
2022-08-28T15:07:13.298Z,2.67
2022-08-28T15:09:44.970Z,3.17
2022-08-28T15:14:55.231Z,3.13
2022-08-28T15:17:34.460Z,3.33
2022-08-28T15:20:05.401Z,3.90
2022-08-28T15:22:35.393Z,3.33
2022-08-28T15:25:06.267Z,3.08
2022-08-28T15:27:37.829Z,3.50
2022-08-28T15:30:09.158Z,3.28
2022-08-28T15:32:39.941Z,3.40
2022-08-28T15:35:11.356Z,3.63
2022-08-28T15:37:41.290Z,3.10
2022-08-28T15:40:30.451Z,3.47
2022-08-28T15:43:01.898Z,3.72
2022-08-28T15:45:31.961Z,3.60
2022-08-28T15:48:01.867Z,3.47
2022-08-28T15:53:27.034Z,3.28
2022-08-28T15:55:57.056Z,3.63
2022-08-28T15:58:27.292Z,3.70
2022-08-28T16:00:57.367Z,3.85
2022-08-28T16:03:28.718Z,3.22
2022-08-28T16:05:59.013Z,3.22
2022-08-28T16:08:31.570Z,3.50
2022-08-28T16:11:01.592Z,3.92
2022-08-28T16:13:31.454Z,3.75
2022-08-28T16:16:01.882Z,3.55
2022-08-28T16:18:31.762Z,4.10
2022-08-28T16:21:04.803Z,3.83
2022-08-28T16:23:37.671Z,4.72
2022-08-28T16:26:08.876Z,4.00
2022-08-28T16:28:39.926Z,4.00
2022-08-28T16:31:19.036Z,4.15
2022-08-28T16:33:49.983Z,4.80
2022-08-28T16:36:21.693Z,4.70
2022-08-28T16:39:01.730Z,4.68
2022-08-28T16:41:34.610Z,4.63
2022-08-28T16:44:04.933Z,4.25
2022-08-28T16:46:34.859Z,4.60
2022-08-28T16:49:05.018Z,4.97
2022-08-28T16:51:35.170Z,5.20
2022-08-28T16:54:07.273Z,5.40
2022-08-28T16:56:37.507Z,5.05
2022-08-28T16:59:10.331Z,4.32
2022-08-28T17:01:42.702Z,5.15
2022-08-28T17:04:13.902Z,5.30
2022-08-28T17:06:46.634Z,5.13
2022-08-28T17:09:20.990Z,5.60
2022-08-28T17:11:52.239Z,5.45
2022-08-28T17:14:22.797Z,5.00
2022-08-28T17:16:53.495Z,4.80
2022-08-28T17:19:24.669Z,4.20
2022-08-28T17:22:11.698Z,4.43
2022-08-28T17:24:43.197Z,4.72
2022-08-28T17:27:14.872Z,4.32
2022-08-28T17:29:53.099Z,4.80
2022-08-28T17:32:23.434Z,4.85
2022-08-28T17:34:53.558Z,4.75
2022-08-28T17:37:24.230Z,4.60
2022-08-28T17:39:55.640Z,4.80
2022-08-28T17:42:25.770Z,5.35
2022-08-28T17:44:55.671Z,4.80
2022-08-28T17:47:27.362Z,4.88
2022-08-28T17:50:01.853Z,4.63
2022-08-28T17:52:32.113Z,5.25
2022-08-28T17:55:04.190Z,4.75
2022-08-28T18:00:05.172Z,4.30
2022-08-28T18:02:35.190Z,5.25
2022-08-28T18:05:05.387Z,4.88
2022-08-28T18:07:35.490Z,5.10
2022-08-28T18:10:09.910Z,4.82
2022-08-28T18:12:39.998Z,4.60
2022-08-28T18:15:13.934Z,5.10
2022-08-28T18:17:48.614Z,4.80
2022-08-28T18:20:19.359Z,4.80
2022-08-28T18:22:50.024Z,4.35
2022-08-28T18:25:38.921Z,4.45
2022-08-28T18:28:09.592Z,5.10
2022-08-28T18:30:45.285Z,4.45
2022-08-28T18:33:17.433Z,4.85
2022-08-28T18:38:22.764Z,4.78
2022-08-28T18:40:54.402Z,4.47
2022-08-28T18:43:24.646Z,4.50
2022-08-28T18:45:54.932Z,4.70
2022-08-28T18:48:25.047Z,4.93
2022-08-28T18:53:28.553Z,4.32
2022-08-28T18:55:59.082Z,4.85
2022-08-28T18:58:33.016Z,5.32
2022-08-28T19:01:03.634Z,5.18
2022-08-28T19:03:34.054Z,4.97
2022-08-28T19:06:04.131Z,4.80
2022-08-28T19:08:38.070Z,5.78
2022-08-28T19:11:10.781Z,4.55
2022-08-28T19:13:41.410Z,5.18
2022-08-28T19:16:12.957Z,5.07
2022-08-28T19:18:42.955Z,4.65
2022-08-28T19:21:16.641Z,6.40
2022-08-28T19:23:55.463Z,5.35
2022-08-28T19:26:26.380Z,5.38
2022-08-28T19:28:57.228Z,5.72
2022-08-28T19:31:28.820Z,5.20
2022-08-28T19:34:00.005Z,5.00
2022-08-28T19:36:31.841Z,4.30
2022-08-28T19:39:03.216Z,5.10
2022-08-28T19:41:33.371Z,4.87
2022-08-28T19:44:03.554Z,4.97
2022-08-28T19:46:34.586Z,4.65
2022-08-28T19:49:05.298Z,5.18
2022-08-28T19:51:37.351Z,4.80
2022-08-28T19:54:11.527Z,4.88
2022-08-28T19:56:42.460Z,4.53
2022-08-28T19:59:12.672Z,4.72
2022-08-28T20:01:46.724Z,4.50
2022-08-28T20:04:18.353Z,4.93
2022-08-28T20:06:48.758Z,4.95
2022-08-28T20:09:20.689Z,5.70
2022-08-28T20:11:50.813Z,5.18
2022-08-28T20:14:22.132Z,5.45
2022-08-28T20:16:55.510Z,5.73
2022-08-28T20:19:25.794Z,5.35
2022-08-28T20:21:56.113Z,4.97
2022-08-28T20:24:30.013Z,4.75
2022-08-28T20:26:59.857Z,5.18
2022-08-28T20:29:29.819Z,4.70
2022-08-28T20:32:00.054Z,4.80
2022-08-28T20:34:30.354Z,5.20
2022-08-28T20:37:00.313Z,4.65
2022-08-28T20:39:31.711Z,4.85
2022-08-28T20:42:01.769Z,4.43
2022-08-28T20:44:31.993Z,5.68
2022-08-28T20:47:01.873Z,4.78
2022-08-28T20:49:31.834Z,5.05
2022-08-28T20:52:02.632Z,4.97
2022-08-28T20:54:37.708Z,4.60
2022-08-28T20:57:13.811Z,5.45
2022-08-28T20:59:45.918Z,5.28
2022-08-28T21:02:19.854Z,5.38
2022-08-28T21:04:50.825Z,4.93
2022-08-28T21:07:23.789Z,4.55
2022-08-28T21:10:07.057Z,5.65
2022-08-28T21:12:38.913Z,5.00
2022-08-28T21:15:11.438Z,5.15
2022-08-28T21:17:41.614Z,5.10
2022-08-28T21:20:16.480Z,4.93
2022-08-28T21:22:47.336Z,5.03
2022-08-28T21:25:20.758Z,5.03
2022-08-28T21:27:50.833Z,4.88
2022-08-28T21:30:23.474Z,4.95
2022-08-28T21:32:58.503Z,5.03
2022-08-28T21:35:28.553Z,5.25
2022-08-28T21:37:58.432Z,4.97
2022-08-28T21:40:30.001Z,4.38
2022-08-28T21:42:59.939Z,4.93
2022-08-28T21:45:29.913Z,3.65
2022-08-28T21:47:59.895Z,4.57
2022-08-28T21:53:26.869Z,4.40
2022-08-28T21:55:57.816Z,3.83
2022-08-28T21:58:27.713Z,4.10
2022-08-28T22:00:58.947Z,4.63
2022-08-28T22:03:30.412Z,4.88
2022-08-28T22:06:00.742Z,5.07
2022-08-28T22:08:32.221Z,4.68
2022-08-28T22:11:02.073Z,4.23
2022-08-28T22:13:32.058Z,4.57
2022-08-28T22:16:01.830Z,4.50
2022-08-28T22:18:34.146Z,4.75
2022-08-28T22:23:52.877Z,4.78
2022-08-28T22:26:23.949Z,4.93
2022-08-28T22:28:53.789Z,5.13
2022-08-28T22:31:23.779Z,4.82
2022-08-28T22:33:54.421Z,4.50
2022-08-28T22:36:24.952Z,5.65
2022-08-28T22:39:01.032Z,5.10
2022-08-28T22:41:31.752Z,4.90
2022-08-28T22:44:01.763Z,5.07
2022-08-28T22:46:31.694Z,4.95
2022-08-28T22:49:01.581Z,4.63
2022-08-28T22:51:31.617Z,4.65
2022-08-28T22:54:02.958Z,5.00
2022-08-28T22:56:32.921Z,4.45
2022-08-28T22:59:02.753Z,4.88
2022-08-28T23:01:32.860Z,4.00
2022-08-28T23:04:03.227Z,4.30
2022-08-28T23:06:34.195Z,4.68
2022-08-28T23:09:05.563Z,4.40
2022-08-28T23:11:35.479Z,4.93
2022-08-28T23:14:05.956Z,4.25
2022-08-28T23:16:36.453Z,4.68
2022-08-28T23:19:09.634Z,4.53
2022-08-28T23:21:44.651Z,4.85
2022-08-28T23:24:17.069Z,4.80
2022-08-28T23:26:48.518Z,4.53
2022-08-28T23:29:18.452Z,4.67
2022-08-28T23:31:48.544Z,4.38
2022-08-28T23:34:18.451Z,4.80
2022-08-28T23:36:48.408Z,4.53
2022-08-28T23:39:20.129Z,4.72
2022-08-28T23:41:53.073Z,4.30
2022-08-28T23:44:23.529Z,4.53
2022-08-28T23:46:53.613Z,5.13
2022-08-28T23:49:26.922Z,4.25
2022-08-28T23:51:57.153Z,5.03
2022-08-28T23:54:28.617Z,4.82
2022-08-28T23:56:58.457Z,4.60
2022-08-28T23:59:29.481Z,4.82
